sensor_id;sensor_type;location;lat;lon;timestamp;pressure;altitude;pressure_sealevel;temperature;humidity
56681;BME280;42558;52.388;13.390;2023-02-08T00:01:39;103793.47;;;-6.38;100.00
56681;BME280;42558;52.388;13.390;2023-02-08T00:04:07;103789.52;;;-6.34;100.00
56681;BME280;42558;52.388;13.390;2023-02-08T00:06:36;103787.17;;;-6.34;100.00
56681;BME280;42558;52.388;13.390;2023-02-08T00:09:04;103784.60;;;-6.36;100.00
56681;BME280;42558;52.388;13.390;2023-02-08T00:11:33;103783.94;;;-6.38;100.00
56681;BME280;42558;52.388;13.390;2023-02-08T00:14:02;103786.58;;;-6.40;100.00
56681;BME280;42558;52.388;13.390;2023-02-08T00:16:29;103785.87;;;-6.40;100.00
56681;BME280;42558;52.388;13.390;2023-02-08T00:18:58;103784.73;;;-6.41;100.00
56681;BME280;42558;52.388;13.390;2023-02-08T00:21:26;103787.62;;;-6.41;100.00
56681;BME280;42558;52.388;13.390;2023-02-08T00:23:55;103787.96;;;-6.42;100.00
56681;BME280;42558;52.388;13.390;2023-02-08T00:26:23;103783.48;;;-6.41;100.00
56681;BME280;42558;52.388;13.390;2023-02-08T00:28:52;103785.01;;;-6.44;100.00
56681;BME280;42558;52.388;13.390;2023-02-08T00:31:20;103789.45;;;-6.44;100.00
56681;BME280;42558;52.388;13.390;2023-02-08T00:33:48;103787.93;;;-6.45;100.00
56681;BME280;42558;52.388;13.390;2023-02-08T00:36:17;103792.38;;;-6.48;100.00
56681;BME280;42558;52.388;13.390;2023-02-08T00:38:45;103799.23;;;-6.51;100.00
56681;BME280;42558;52.388;13.390;2023-02-08T00:41:14;103799.48;;;-6.56;100.00
56681;BME280;42558;52.388;13.390;2023-02-08T00:43:42;103796.11;;;-6.60;100.00
56681;BME280;42558;52.388;13.390;2023-02-08T00:46:10;103798.80;;;-6.61;100.00
56681;BME280;42558;52.388;13.390;2023-02-08T00:48:39;103796.23;;;-6.61;100.00
56681;BME280;42558;52.388;13.390;2023-02-08T00:51:11;103795.44;;;-6.62;100.00
56681;BME280;42558;52.388;13.390;2023-02-08T00:53:44;103800.23;;;-6.63;100.00
56681;BME280;42558;52.388;13.390;2023-02-08T00:56:15;103799.63;;;-6.65;100.00
56681;BME280;42558;52.388;13.390;2023-02-08T00:58:45;103795.22;;;-6.66;100.00
56681;BME280;42558;52.388;13.390;2023-02-08T01:01:15;103795.95;;;-6.67;100.00
56681;BME280;42558;52.388;13.390;2023-02-08T01:03:42;103794.84;;;-6.70;100.00
56681;BME280;42558;52.388;13.390;2023-02-08T01:06:16;103794.50;;;-6.70;100.00
56681;BME280;42558;52.388;13.390;2023-02-08T01:08:45;103794.09;;;-6.71;100.00
56681;BME280;42558;52.388;13.390;2023-02-08T01:11:23;103794.58;;;-6.70;100.00
56681;BME280;42558;52.388;13.390;2023-02-08T01:13:56;103794.42;;;-6.72;100.00
56681;BME280;42558;52.388;13.390;2023-02-08T01:16:31;103797.17;;;-6.76;100.00
56681;BME280;42558;52.388;13.390;2023-02-08T01:19:02;103799.63;;;-6.77;100.00
56681;BME280;42558;52.388;13.390;2023-02-08T01:21:35;103794.09;;;-6.77;100.00
56681;BME280;42558;52.388;13.390;2023-02-08T01:24:04;103790.80;;;-6.76;100.00
56681;BME280;42558;52.388;13.390;2023-02-08T01:26:34;103787.16;;;-6.76;100.00
56681;BME280;42558;52.388;13.390;2023-02-08T01:29:03;103786.63;;;-6.75;100.00
56681;BME280;42558;52.388;13.390;2023-02-08T01:31:35;103790.61;;;-6.76;100.00
56681;BME280;42558;52.388;13.390;2023-02-08T01:34:07;103790.56;;;-6.78;100.00
56681;BME280;42558;52.388;13.390;2023-02-08T01:36:38;103790.42;;;-6.82;100.00
56681;BME280;42558;52.388;13.390;2023-02-08T01:39:10;103790.45;;;-6.80;100.00
56681;BME280;42558;52.388;13.390;2023-02-08T01:41:43;103793.55;;;-6.83;100.00
56681;BME280;42558;52.388;13.390;2023-02-08T01:46:48;103795.89;;;-6.82;100.00
56681;BME280;42558;52.388;13.390;2023-02-08T01:49:28;103795.27;;;-6.81;100.00
56681;BME280;42558;52.388;13.390;2023-02-08T01:52:05;103791.92;;;-6.82;100.00
56681;BME280;42558;52.388;13.390;2023-02-08T01:54:50;103796.00;;;-6.83;100.00
56681;BME280;42558;52.388;13.390;2023-02-08T01:57:23;103792.88;;;-6.86;100.00
56681;BME280;42558;52.388;13.390;2023-02-08T02:00:03;103794.33;;;-6.86;100.00
56681;BME280;42558;52.388;13.390;2023-02-08T02:02:36;103798.82;;;-6.87;100.00
56681;BME280;42558;52.388;13.390;2023-02-08T02:05:07;103805.43;;;-6.92;100.00
56681;BME280;42558;52.388;13.390;2023-02-08T02:07:38;103798.18;;;-6.91;100.00
56681;BME280;42558;52.388;13.390;2023-02-08T02:10:15;103803.37;;;-6.93;100.00
56681;BME280;42558;52.388;13.390;2023-02-08T02:12:46;103797.02;;;-6.94;100.00
56681;BME280;42558;52.388;13.390;2023-02-08T02:15:14;103801.65;;;-6.95;100.00
56681;BME280;42558;52.388;13.390;2023-02-08T02:17:43;103804.25;;;-6.98;100.00
56681;BME280;42558;52.388;13.390;2023-02-08T02:23:40;103797.15;;;-6.97;100.00
56681;BME280;42558;52.388;13.390;2023-02-08T02:42:00;103806.09;;;-7.07;100.00
56681;BME280;42558;52.388;13.390;2023-02-08T02:51:21;103796.51;;;-6.99;100.00
56681;BME280;42558;52.388;13.390;2023-02-08T02:54:00;103793.27;;;-6.97;100.00
56681;BME280;42558;52.388;13.390;2023-02-08T02:56:38;103796.16;;;-6.98;100.00
56681;BME280;42558;52.388;13.390;2023-02-08T02:59:14;103798.63;;;-7.00;100.00
56681;BME280;42558;52.388;13.390;2023-02-08T03:01:46;103796.61;;;-7.02;100.00
56681;BME280;42558;52.388;13.390;2023-02-08T03:16:41;103802.14;;;-7.08;100.00
56681;BME280;42558;52.388;13.390;2023-02-08T03:19:34;103799.05;;;-7.15;100.00
56681;BME280;42558;52.388;13.390;2023-02-08T03:26:06;103802.51;;;-7.20;100.00
56681;BME280;42558;52.388;13.390;2023-02-08T03:29:02;103801.73;;;-7.24;100.00
56681;BME280;42558;52.388;13.390;2023-02-08T03:31:50;103794.45;;;-7.24;100.00
56681;BME280;42558;52.388;13.390;2023-02-08T03:34:47;103798.37;;;-7.24;100.00
56681;BME280;42558;52.388;13.390;2023-02-08T03:37:26;103799.41;;;-7.22;100.00
56681;BME280;42558;52.388;13.390;2023-02-08T03:40:06;103798.63;;;-7.24;100.00
56681;BME280;42558;52.388;13.390;2023-02-08T03:42:40;103795.69;;;-7.24;100.00
56681;BME280;42558;52.388;13.390;2023-02-08T03:45:21;103802.77;;;-7.21;100.00
56681;BME280;42558;52.388;13.390;2023-02-08T03:47:56;103798.80;;;-7.14;100.00
56681;BME280;42558;52.388;13.390;2023-02-08T03:50:28;103797.02;;;-7.11;100.00
56681;BME280;42558;52.388;13.390;2023-02-08T03:53:00;103797.96;;;-7.17;100.00
56681;BME280;42558;52.388;13.390;2023-02-08T03:55:34;103795.77;;;-7.19;100.00
56681;BME280;42558;52.388;13.390;2023-02-08T03:58:17;103797.44;;;-7.17;100.00
56681;BME280;42558;52.388;13.390;2023-02-08T04:01:08;103792.05;;;-7.12;100.00
56681;BME280;42558;52.388;13.390;2023-02-08T04:03:44;103792.99;;;-7.13;100.00
56681;BME280;42558;52.388;13.390;2023-02-08T04:06:16;103791.50;;;-7.15;100.00
56681;BME280;42558;52.388;13.390;2023-02-08T04:08:46;103792.94;;;-7.09;100.00
56681;BME280;42558;52.388;13.390;2023-02-08T04:11:17;103793.42;;;-7.04;100.00
56681;BME280;42558;52.388;13.390;2023-02-08T04:13:46;103795.36;;;-7.00;100.00
56681;BME280;42558;52.388;13.390;2023-02-08T04:16:16;103792.79;;;-6.98;100.00
56681;BME280;42558;52.388;13.390;2023-02-08T04:18:46;103791.44;;;-6.96;100.00
56681;BME280;42558;52.388;13.390;2023-02-08T04:21:16;103793.73;;;-6.96;100.00
56681;BME280;42558;52.388;13.390;2023-02-08T04:23:44;103792.23;;;-6.96;100.00
56681;BME280;42558;52.388;13.390;2023-02-08T04:26:13;103792.94;;;-6.97;100.00
56681;BME280;42558;52.388;13.390;2023-02-08T04:28:41;103793.85;;;-6.95;100.00
56681;BME280;42558;52.388;13.390;2023-02-08T04:31:12;103788.52;;;-6.89;100.00
56681;BME280;42558;52.388;13.390;2023-02-08T04:33:40;103786.61;;;-6.83;100.00
56681;BME280;42558;52.388;13.390;2023-02-08T04:36:09;103786.20;;;-6.85;100.00
56681;BME280;42558;52.388;13.390;2023-02-08T04:38:37;103789.44;;;-6.88;100.00
56681;BME280;42558;52.388;13.390;2023-02-08T04:41:05;103792.86;;;-6.93;100.00
56681;BME280;42558;52.388;13.390;2023-02-08T04:43:34;103789.48;;;-6.97;100.00
56681;BME280;42558;52.388;13.390;2023-02-08T04:46:02;103792.48;;;-7.01;100.00
56681;BME280;42558;52.388;13.390;2023-02-08T04:48:31;103788.77;;;-7.05;100.00
56681;BME280;42558;52.388;13.390;2023-02-08T04:50:59;103787.16;;;-7.04;100.00
56681;BME280;42558;52.388;13.390;2023-02-08T04:53:28;103788.65;;;-6.97;100.00
56681;BME280;42558;52.388;13.390;2023-02-08T04:55:56;103784.48;;;-6.91;100.00
56681;BME280;42558;52.388;13.390;2023-02-08T04:58:24;103788.67;;;-6.99;100.00
56681;BME280;42558;52.388;13.390;2023-02-08T05:00:53;103798.92;;;-7.04;100.00
56681;BME280;42558;52.388;13.390;2023-02-08T05:03:21;103805.76;;;-7.07;100.00
56681;BME280;42558;52.388;13.390;2023-02-08T05:05:58;103802.52;;;-7.09;100.00
56681;BME280;42558;52.388;13.390;2023-02-08T05:08:28;103804.02;;;-7.09;100.00
56681;BME280;42558;52.388;13.390;2023-02-08T05:10:58;103800.45;;;-7.07;100.00
56681;BME280;42558;52.388;13.390;2023-02-08T05:13:28;103802.27;;;-7.07;100.00
56681;BME280;42558;52.388;13.390;2023-02-08T05:15:57;103801.92;;;-7.05;100.00
56681;BME280;42558;52.388;13.390;2023-02-08T05:18:27;103805.48;;;-7.05;100.00
56681;BME280;42558;52.388;13.390;2023-02-08T05:20:59;103804.28;;;-7.04;100.00
56681;BME280;42558;52.388;13.390;2023-02-08T05:23:29;103804.86;;;-7.05;100.00
56681;BME280;42558;52.388;13.390;2023-02-08T05:26:08;103802.58;;;-7.06;100.00
56681;BME280;42558;52.388;13.390;2023-02-08T05:28:39;103806.91;;;-7.09;100.00
56681;BME280;42558;52.388;13.390;2023-02-08T05:31:18;103809.05;;;-7.09;100.00
56681;BME280;42558;52.388;13.390;2023-02-08T05:33:53;103812.34;;;-7.13;100.00
56681;BME280;42558;52.388;13.390;2023-02-08T05:36:23;103812.40;;;-7.09;100.00
56681;BME280;42558;52.388;13.390;2023-02-08T05:38:53;103810.17;;;-7.09;100.00
56681;BME280;42558;52.388;13.390;2023-02-08T05:41:23;103817.89;;;-7.11;100.00
56681;BME280;42558;52.388;13.390;2023-02-08T05:43:52;103814.39;;;-7.12;100.00
56681;BME280;42558;52.388;13.390;2023-02-08T05:46:22;103817.41;;;-7.10;100.00
56681;BME280;42558;52.388;13.390;2023-02-08T05:48:52;103820.45;;;-7.11;100.00
56681;BME280;42558;52.388;13.390;2023-02-08T05:51:22;103823.54;;;-7.11;100.00
56681;BME280;42558;52.388;13.390;2023-02-08T05:53:52;103824.25;;;-7.09;100.00
56681;BME280;42558;52.388;13.390;2023-02-08T05:56:21;103818.98;;;-7.09;100.00
56681;BME280;42558;52.388;13.390;2023-02-08T05:58:51;103822.48;;;-7.10;100.00
56681;BME280;42558;52.388;13.390;2023-02-08T06:01:21;103821.77;;;-7.11;100.00
56681;BME280;42558;52.388;13.390;2023-02-08T06:03:51;103825.66;;;-7.10;100.00
56681;BME280;42558;52.388;13.390;2023-02-08T06:06:22;103824.38;;;-7.09;100.00
56681;BME280;42558;52.388;13.390;2023-02-08T06:08:52;103821.47;;;-7.07;100.00
56681;BME280;42558;52.388;13.390;2023-02-08T06:11:22;103818.88;;;-7.06;100.00
56681;BME280;42558;52.388;13.390;2023-02-08T06:13:52;103821.21;;;-6.96;100.00
56681;BME280;42558;52.388;13.390;2023-02-08T06:16:22;103827.16;;;-6.95;100.00
56681;BME280;42558;52.388;13.390;2023-02-08T06:18:52;103828.91;;;-6.97;100.00
56681;BME280;42558;52.388;13.390;2023-02-08T06:21:22;103833.89;;;-6.97;100.00
56681;BME280;42558;52.388;13.390;2023-02-08T06:23:53;103834.92;;;-6.97;100.00
56681;BME280;42558;52.388;13.390;2023-02-08T06:26:23;103834.67;;;-6.96;100.00
56681;BME280;42558;52.388;13.390;2023-02-08T06:28:52;103834.16;;;-6.94;100.00
56681;BME280;42558;52.388;13.390;2023-02-08T06:31:22;103833.98;;;-6.92;100.00
56681;BME280;42558;52.388;13.390;2023-02-08T06:33:52;103834.11;;;-6.88;100.00
56681;BME280;42558;52.388;13.390;2023-02-08T06:36:22;103838.95;;;-6.90;100.00
56681;BME280;42558;52.388;13.390;2023-02-08T06:38:52;103845.04;;;-6.90;100.00
56681;BME280;42558;52.388;13.390;2023-02-08T06:41:22;103845.77;;;-6.83;100.00
56681;BME280;42558;52.388;13.390;2023-02-08T06:43:51;103847.71;;;-6.83;100.00
56681;BME280;42558;52.388;13.390;2023-02-08T06:46:21;103852.26;;;-6.87;100.00
56681;BME280;42558;52.388;13.390;2023-02-08T06:48:51;103852.73;;;-6.84;100.00
56681;BME280;42558;52.388;13.390;2023-02-08T06:51:21;103854.52;;;-6.82;100.00
56681;BME280;42558;52.388;13.390;2023-02-08T06:53:51;103858.35;;;-6.80;100.00
56681;BME280;42558;52.388;13.390;2023-02-08T06:56:19;103857.46;;;-6.76;100.00
56681;BME280;42558;52.388;13.390;2023-02-08T06:58:48;103855.52;;;-6.73;100.00
56681;BME280;42558;52.388;13.390;2023-02-08T07:01:16;103853.80;;;-6.71;100.00
56681;BME280;42558;52.388;13.390;2023-02-08T07:03:44;103849.30;;;-6.71;100.00
56681;BME280;42558;52.388;13.390;2023-02-08T07:06:15;103850.39;;;-6.67;100.00
56681;BME280;42558;52.388;13.390;2023-02-08T07:08:46;103845.62;;;-6.64;100.00
56681;BME280;42558;52.388;13.390;2023-02-08T07:11:19;103849.91;;;-6.58;100.00
56681;BME280;42558;52.388;13.390;2023-02-08T07:13:51;103851.52;;;-6.52;100.00
56681;BME280;42558;52.388;13.390;2023-02-08T07:16:21;103849.95;;;-6.48;100.00
56681;BME280;42558;52.388;13.390;2023-02-08T07:18:51;103851.78;;;-6.45;100.00
56681;BME280;42558;52.388;13.390;2023-02-08T07:21:20;103849.59;;;-6.41;100.00
56681;BME280;42558;52.388;13.390;2023-02-08T07:23:50;103850.65;;;-6.34;100.00
56681;BME280;42558;52.388;13.390;2023-02-08T07:26:20;103846.11;;;-6.26;100.00
56681;BME280;42558;52.388;13.390;2023-02-08T07:28:50;103841.54;;;-6.18;100.00
56681;BME280;42558;52.388;13.390;2023-02-08T07:31:20;103838.64;;;-6.14;100.00
56681;BME280;42558;52.388;13.390;2023-02-08T07:33:50;103832.25;;;-6.11;100.00
56681;BME280;42558;52.388;13.390;2023-02-08T07:36:19;103829.66;;;-6.07;100.00
56681;BME280;42558;52.388;13.390;2023-02-08T07:38:49;103829.97;;;-6.05;100.00
56681;BME280;42558;52.388;13.390;2023-02-08T07:41:19;103832.77;;;-6.00;100.00
56681;BME280;42558;52.388;13.390;2023-02-08T07:43:49;103830.83;;;-5.95;100.00
56681;BME280;42558;52.388;13.390;2023-02-08T07:46:20;103829.95;;;-5.87;100.00
56681;BME280;42558;52.388;13.390;2023-02-08T07:48:50;103827.55;;;-5.80;100.00
56681;BME280;42558;52.388;13.390;2023-02-08T07:51:21;103830.44;;;-5.74;100.00
56681;BME280;42558;52.388;13.390;2023-02-08T07:53:51;103833.02;;;-5.70;100.00
56681;BME280;42558;52.388;13.390;2023-02-08T07:56:20;103840.14;;;-5.62;100.00
56681;BME280;42558;52.388;13.390;2023-02-08T07:58:48;103842.45;;;-5.59;100.00
56681;BME280;42558;52.388;13.390;2023-02-08T08:01:17;103847.34;;;-5.52;100.00
56681;BME280;42558;52.388;13.390;2023-02-08T08:03:51;103850.72;;;-5.48;100.00
56681;BME280;42558;52.388;13.390;2023-02-08T08:06:21;103853.34;;;-5.37;100.00
56681;BME280;42558;52.388;13.390;2023-02-08T08:08:52;103855.31;;;-5.29;100.00
56681;BME280;42558;52.388;13.390;2023-02-08T08:11:22;103860.30;;;-5.23;100.00
56681;BME280;42558;52.388;13.390;2023-02-08T08:13:52;103859.20;;;-5.11;100.00
56681;BME280;42558;52.388;13.390;2023-02-08T08:16:22;103865.06;;;-5.00;100.00
56681;BME280;42558;52.388;13.390;2023-02-08T08:18:52;103870.36;;;-4.92;100.00
56681;BME280;42558;52.388;13.390;2023-02-08T08:21:19;103873.98;;;-4.89;100.00
56681;BME280;42558;52.388;13.390;2023-02-08T08:23:46;103872.38;;;-4.80;100.00
56681;BME280;42558;52.388;13.390;2023-02-08T08:26:20;103876.60;;;-4.69;100.00
56681;BME280;42558;52.388;13.390;2023-02-08T08:28:48;103875.96;;;-4.55;100.00
56681;BME280;42558;52.388;13.390;2023-02-08T08:31:21;103879.05;;;-4.51;99.92
56681;BME280;42558;52.388;13.390;2023-02-08T08:33:49;103880.02;;;-4.53;98.83
56681;BME280;42558;52.388;13.390;2023-02-08T08:36:19;103883.26;;;-4.49;98.17
56681;BME280;42558;52.388;13.390;2023-02-08T08:38:50;103880.21;;;-4.24;97.73
56681;BME280;42558;52.388;13.390;2023-02-08T08:41:19;103883.44;;;-3.74;95.80
56681;BME280;42558;52.388;13.390;2023-02-08T08:43:54;103881.33;;;-3.85;94.71
56681;BME280;42558;52.388;13.390;2023-02-08T08:46:24;103873.67;;;-3.89;94.69
56681;BME280;42558;52.388;13.390;2023-02-08T08:48:54;103875.30;;;-3.67;94.40
56681;BME280;42558;52.388;13.390;2023-02-08T08:51:24;103872.99;;;-3.20;92.81
56681;BME280;42558;52.388;13.390;2023-02-08T08:53:54;103871.89;;;-3.04;91.34
56681;BME280;42558;52.388;13.390;2023-02-08T08:56:24;103863.48;;;-1.90;87.26
56681;BME280;42558;52.388;13.390;2023-02-08T08:58:53;103850.96;;;-0.84;81.94
56681;BME280;42558;52.388;13.390;2023-02-08T09:01:24;103852.27;;;-0.79;77.61
56681;BME280;42558;52.388;13.390;2023-02-08T09:03:54;103849.10;;;-1.11;79.17
56681;BME280;42558;52.388;13.390;2023-02-08T09:06:23;103844.11;;;-0.95;78.90
56681;BME280;42558;52.388;13.390;2023-02-08T09:08:53;103838.27;;;-0.28;76.50
56681;BME280;42558;52.388;13.390;2023-02-08T09:11:22;103834.71;;;0.38;73.59
56681;BME280;42558;52.388;13.390;2023-02-08T09:13:50;103824.89;;;1.13;70.11
56681;BME280;42558;52.388;13.390;2023-02-08T09:16:19;103830.21;;;0.43;70.70
56681;BME280;42558;52.388;13.390;2023-02-08T09:18:47;103829.39;;;-0.12;73.81
56681;BME280;42558;52.388;13.390;2023-02-08T09:21:20;103832.91;;;-0.17;75.04
56681;BME280;42558;52.388;13.390;2023-02-08T09:23:50;103826.41;;;0.28;73.83
56681;BME280;42558;52.388;13.390;2023-02-08T09:26:21;103827.05;;;0.61;72.43
56681;BME280;42558;52.388;13.390;2023-02-08T09:28:51;103818.99;;;2.47;68.20
56681;BME280;42558;52.388;13.390;2023-02-08T09:31:23;103823.67;;;1.70;66.65
56681;BME280;42558;52.388;13.390;2023-02-08T09:33:57;103831.31;;;0.70;70.79
56681;BME280;42558;52.388;13.390;2023-02-08T09:36:31;103826.34;;;1.48;68.78
56681;BME280;42558;52.388;13.390;2023-02-08T09:39:18;103835.23;;;1.26;69.68
56681;BME280;42558;52.388;13.390;2023-02-08T09:45:21;103837.14;;;0.92;72.32
56681;BME280;42558;52.388;13.390;2023-02-08T09:48:23;103833.69;;;0.97;71.53
56681;BME280;42558;52.388;13.390;2023-02-08T09:51:14;103843.52;;;-0.90;76.05
56681;BME280;42558;52.388;13.390;2023-02-08T09:54:24;103848.58;;;-1.58;80.11
56681;BME280;42558;52.388;13.390;2023-02-08T09:56:53;103847.09;;;-1.17;79.40
56681;BME280;42558;52.388;13.390;2023-02-08T09:59:28;103836.02;;;-0.34;78.34
56681;BME280;42558;52.388;13.390;2023-02-08T10:02:14;103824.99;;;0.38;73.93
56681;BME280;42558;52.388;13.390;2023-02-08T10:05:13;103821.08;;;0.81;69.15
56681;BME280;42558;52.388;13.390;2023-02-08T10:07:43;103816.76;;;0.99;70.31
56681;BME280;42558;52.388;13.390;2023-02-08T10:28:57;103801.58;;;0.39;74.30
56681;BME280;42558;52.388;13.390;2023-02-08T10:34:57;103787.43;;;2.04;64.60
56681;BME280;42558;52.388;13.390;2023-02-08T10:37:32;103785.70;;;2.16;64.91
56681;BME280;42558;52.388;13.390;2023-02-08T10:40:37;103779.81;;;3.42;63.13
56681;BME280;42558;52.388;13.390;2023-02-08T10:51:20;103757.39;;;4.05;58.33
56681;BME280;42558;52.388;13.390;2023-02-08T10:53:52;103745.08;;;4.88;56.82
56681;BME280;42558;52.388;13.390;2023-02-08T10:56:39;103755.47;;;3.48;57.83
56681;BME280;42558;52.388;13.390;2023-02-08T10:59:25;103748.11;;;3.81;58.42
56681;BME280;42558;52.388;13.390;2023-02-08T11:01:57;103747.77;;;3.15;59.59
56681;BME280;42558;52.388;13.390;2023-02-08T11:04:27;103745.94;;;3.09;59.90
56681;BME280;42558;52.388;13.390;2023-02-08T11:06:56;103747.05;;;2.55;61.57
56681;BME280;42558;52.388;13.390;2023-02-08T11:09:30;103754.58;;;1.36;64.26
56681;BME280;42558;52.388;13.390;2023-02-08T11:12:01;103747.95;;;2.00;66.15
56681;BME280;42558;52.388;13.390;2023-02-08T11:14:49;103739.44;;;3.40;60.06
56681;BME280;42558;52.388;13.390;2023-02-08T11:17:30;103735.04;;;2.99;59.32
56681;BME280;42558;52.388;13.390;2023-02-08T11:20:01;103736.48;;;1.99;62.77
56681;BME280;42558;52.388;13.390;2023-02-08T11:22:30;103728.20;;;3.03;61.33
56681;BME280;42558;52.388;13.390;2023-02-08T11:25:05;103728.55;;;1.53;63.58
56681;BME280;42558;52.388;13.390;2023-02-08T11:27:37;103735.23;;;0.60;71.04
56681;BME280;42558;52.388;13.390;2023-02-08T11:32:46;103730.58;;;0.24;71.64
56681;BME280;42558;52.388;13.390;2023-02-08T11:37:56;103734.09;;;-0.10;74.17
56681;BME280;42558;52.388;13.390;2023-02-08T11:40:43;103732.69;;;-0.01;73.80
56681;BME280;42558;52.388;13.390;2023-02-08T11:43:34;103733.67;;;-0.59;74.71
56681;BME280;42558;52.388;13.390;2023-02-08T11:46:04;103732.55;;;-0.58;75.68
56681;BME280;42558;52.388;13.390;2023-02-08T11:48:49;103729.55;;;-0.48;75.76
56681;BME280;42558;52.388;13.390;2023-02-08T11:51:31;103726.19;;;-0.57;75.85
56681;BME280;42558;52.388;13.390;2023-02-08T11:54:02;103731.94;;;-0.61;75.60
56681;BME280;42558;52.388;13.390;2023-02-08T11:56:33;103730.67;;;-0.58;76.45
56681;BME280;42558;52.388;13.390;2023-02-08T11:59:24;103728.55;;;-0.47;76.02
56681;BME280;42558;52.388;13.390;2023-02-08T12:01:56;103725.73;;;-0.45;76.88
56681;BME280;42558;52.388;13.390;2023-02-08T12:04:23;103724.50;;;-0.30;76.03
56681;BME280;42558;52.388;13.390;2023-02-08T12:07:10;103717.96;;;0.03;76.35
56681;BME280;42558;52.388;13.390;2023-02-08T12:13:03;103717.34;;;-0.09;74.73
56681;BME280;42558;52.388;13.390;2023-02-08T12:22:27;103707.02;;;0.14;73.39
56681;BME280;42558;52.388;13.390;2023-02-08T12:25:43;103704.08;;;0.30;73.40
56681;BME280;42558;52.388;13.390;2023-02-08T12:28:39;103703.79;;;0.20;72.79
56681;BME280;42558;52.388;13.390;2023-02-08T12:50:24;103708.63;;;0.49;71.13
56681;BME280;42558;52.388;13.390;2023-02-08T12:53:16;103700.55;;;0.48;71.24
56681;BME280;42558;52.388;13.390;2023-02-08T12:55:50;103699.08;;;0.49;71.23
56681;BME280;42558;52.388;13.390;2023-02-08T12:58:55;103696.83;;;0.52;71.77
56681;BME280;42558;52.388;13.390;2023-02-08T13:01:45;103697.58;;;0.48;70.78
56681;BME280;42558;52.388;13.390;2023-02-08T13:04:30;103699.29;;;0.46;71.41
56681;BME280;42558;52.388;13.390;2023-02-08T13:07:22;103704.48;;;0.53;71.40
56681;BME280;42558;52.388;13.390;2023-02-08T13:10:17;103694.36;;;0.62;70.35
56681;BME280;42558;52.388;13.390;2023-02-08T13:13:18;103690.48;;;0.56;70.64
56681;BME280;42558;52.388;13.390;2023-02-08T13:16:04;103686.86;;;0.33;70.15
56681;BME280;42558;52.388;13.390;2023-02-08T13:19:20;103687.84;;;0.50;70.53
56681;BME280;42558;52.388;13.390;2023-02-08T13:21:52;103687.52;;;0.59;70.15
56681;BME280;42558;52.388;13.390;2023-02-08T13:24:35;103682.77;;;0.55;70.01
56681;BME280;42558;52.388;13.390;2023-02-08T13:27:15;103677.23;;;0.58;70.25
56681;BME280;42558;52.388;13.390;2023-02-08T13:29:49;103668.89;;;0.65;69.69
56681;BME280;42558;52.388;13.390;2023-02-08T13:32:30;103664.98;;;0.64;69.68
56681;BME280;42558;52.388;13.390;2023-02-08T13:35:24;103663.57;;;0.64;70.17
56681;BME280;42558;52.388;13.390;2023-02-08T13:38:29;103653.54;;;0.66;69.35
56681;BME280;42558;52.388;13.390;2023-02-08T13:41:07;103654.68;;;0.67;69.78
56681;BME280;42558;52.388;13.390;2023-02-08T13:44:15;103648.70;;;0.62;70.44
56681;BME280;42558;52.388;13.390;2023-02-08T13:46:48;103647.50;;;0.71;70.77
56681;BME280;42558;52.388;13.390;2023-02-08T14:03:25;103645.75;;;0.78;68.90
56681;BME280;42558;52.388;13.390;2023-02-08T14:06:20;103645.36;;;0.86;69.02
56681;BME280;42558;52.388;13.390;2023-02-08T14:09:08;103641.61;;;0.76;68.20
56681;BME280;42558;52.388;13.390;2023-02-08T14:11:50;103636.83;;;0.86;68.85
56681;BME280;42558;52.388;13.390;2023-02-08T14:14:35;103635.59;;;0.80;67.50
56681;BME280;42558;52.388;13.390;2023-02-08T14:19:55;103630.98;;;1.46;66.61
56681;BME280;42558;52.388;13.390;2023-02-08T14:22:37;103624.96;;;1.58;65.25
56681;BME280;42558;52.388;13.390;2023-02-08T14:25:22;103631.86;;;1.09;68.18
56681;BME280;42558;52.388;13.390;2023-02-08T14:28:00;103627.01;;;0.91;68.39
56681;BME280;42558;52.388;13.390;2023-02-08T14:30:35;103625.45;;;0.84;69.67
56681;BME280;42558;52.388;13.390;2023-02-08T14:35:41;103614.14;;;0.63;69.75
56681;BME280;42558;52.388;13.390;2023-02-08T14:40:56;103613.26;;;0.58;69.11
56681;BME280;42558;52.388;13.390;2023-02-08T14:43:40;103615.67;;;0.57;68.99
56681;BME280;42558;52.388;13.390;2023-02-08T14:49:16;103613.16;;;0.51;69.15
56681;BME280;42558;52.388;13.390;2023-02-08T14:51:53;103611.63;;;0.45;69.14
56681;BME280;42558;52.388;13.390;2023-02-08T14:59:58;103611.90;;;0.39;69.31
56681;BME280;42558;52.388;13.390;2023-02-08T15:02:27;103601.95;;;0.36;69.61
56681;BME280;42558;52.388;13.390;2023-02-08T15:05:01;103605.02;;;0.31;70.09
56681;BME280;42558;52.388;13.390;2023-02-08T15:07:50;103598.40;;;0.32;69.93
56681;BME280;42558;52.388;13.390;2023-02-08T15:10:24;103592.84;;;0.23;70.40
56681;BME280;42558;52.388;13.390;2023-02-08T15:13:02;103594.74;;;0.18;70.40
56681;BME280;42558;52.388;13.390;2023-02-08T15:15:39;103590.52;;;0.19;70.33
56681;BME280;42558;52.388;13.390;2023-02-08T15:18:31;103591.80;;;0.16;70.32
56681;BME280;42558;52.388;13.390;2023-02-08T15:21:13;103585.89;;;0.16;70.20
56681;BME280;42558;52.388;13.390;2023-02-08T15:24:16;103579.05;;;0.03;71.37
56681;BME280;42558;52.388;13.390;2023-02-08T15:26:53;103584.94;;;-0.06;71.52
56681;BME280;42558;52.388;13.390;2023-02-08T15:29:27;103582.85;;;-0.04;71.19
56681;BME280;42558;52.388;13.390;2023-02-08T15:32:17;103581.25;;;-0.09;71.69
56681;BME280;42558;52.388;13.390;2023-02-08T15:35:02;103576.27;;;-0.19;72.10
56681;BME280;42558;52.388;13.390;2023-02-08T15:37:33;103574.48;;;-0.28;73.12
56681;BME280;42558;52.388;13.390;2023-02-08T15:40:04;103573.08;;;-0.40;73.88